createdAt,value
2018-04-30T00:00:30.850Z,100367.20
2018-04-30T00:02:57.263Z,100368.11
2018-04-30T00:05:23.446Z,100361.12
2018-04-30T00:07:50.063Z,100356.75
2018-04-30T00:10:16.213Z,100346.70
2018-04-30T00:12:42.684Z,100342.33
2018-04-30T00:15:08.861Z,100335.77
2018-04-30T00:17:35.043Z,100326.59
2018-04-30T00:20:01.206Z,100327.50
2018-04-30T00:22:27.691Z,100323.14
2018-04-30T00:24:53.837Z,100310.94
2018-04-30T00:27:19.972Z,100307.84
2018-04-30T00:29:46.149Z,100301.29
2018-04-30T00:32:12.298Z,100293.02
2018-04-30T00:34:38.504Z,100290.41
2018-04-30T00:37:04.679Z,100290.36
2018-04-30T00:39:30.821Z,100292.19
2018-04-30T00:41:57.018Z,100290.45
2018-04-30T00:44:23.153Z,100292.19
2018-04-30T00:46:49.288Z,100286.08
2018-04-30T00:49:15.582Z,100287.78
2018-04-30T00:51:41.730Z,100274.75
2018-04-30T00:54:07.884Z,100271.66
2018-04-30T00:56:34.485Z,100275.58
2018-04-30T00:59:00.633Z,100271.66
2018-04-30T01:01:26.777Z,100260.73
2018-04-30T01:03:52.953Z,100264.19
2018-04-30T01:06:19.102Z,100253.26
2018-04-30T01:08:45.265Z,100247.09
2018-04-30T01:11:11.409Z,100233.58
2018-04-30T01:13:37.917Z,100222.19
2018-04-30T01:16:04.089Z,100215.67
2018-04-30T01:18:30.228Z,100217.03
2018-04-30T01:20:56.663Z,100207.41
2018-04-30T01:23:23.098Z,100205.19
2018-04-30T01:25:49.285Z,100195.56
2018-04-30T01:28:15.760Z,100196.02
2018-04-30T01:30:41.930Z,100184.70
2018-04-30T01:33:08.077Z,100181.20
2018-04-30T01:35:35.238Z,100170.70
2018-04-30T01:38:01.378Z,100172.50
2018-04-30T01:40:27.525Z,100164.28
2018-04-30T01:42:53.693Z,100164.77
2018-04-30T01:45:19.850Z,100159.92
2018-04-30T01:47:46.053Z,100164.33
2018-04-30T01:50:12.224Z,100145.14
2018-04-30T01:52:38.651Z,100138.11
2018-04-30T01:55:04.845Z,100126.36
2018-04-30T01:57:30.984Z,100124.13
2018-04-30T01:59:57.173Z,100114.13
2018-04-30T02:02:23.406Z,100101.94
2018-04-30T02:04:49.555Z,100097.56
2018-04-30T02:07:15.738Z,100087.12
2018-04-30T02:09:41.876Z,100069.64
2018-04-30T02:12:08.045Z,100055.66
2018-04-30T02:14:34.218Z,100040.41
2018-04-30T02:17:00.737Z,100039.11
2018-04-30T02:19:27.161Z,100036.53
2018-04-30T02:21:53.333Z,100031.25
2018-04-30T02:24:19.590Z,100029.50
2018-04-30T02:26:45.737Z,100022.95
2018-04-30T02:29:12.414Z,100016.00
2018-04-30T02:31:38.562Z,100016.87
2018-04-30T02:34:04.710Z,99996.78
2018-04-30T02:36:31.003Z,99988.92
2018-04-30T02:38:57.149Z,99971.96
2018-04-30T02:41:23.294Z,99961.05
2018-04-30T02:43:49.472Z,99952.75
2018-04-30T02:46:15.614Z,99950.08
2018-04-30T02:48:41.829Z,99942.21
2018-04-30T02:51:08.050Z,99940.42
2018-04-30T02:53:34.193Z,99942.17
2018-04-30T02:56:00.373Z,99940.41
2018-04-30T02:58:26.998Z,99936.09
2018-04-30T03:00:53.147Z,99925.17
2018-04-30T03:03:19.281Z,99906.34
2018-04-30T03:05:45.474Z,99908.52
2018-04-30T03:08:11.946Z,99902.84
2018-04-30T03:10:38.371Z,99888.00
2018-04-30T03:13:04.551Z,99886.30
2018-04-30T03:15:30.702Z,99874.55
2018-04-30T03:17:57.027Z,99868.91
2018-04-30T03:20:23.483Z,99866.73
2018-04-30T03:22:49.629Z,99857.98
2018-04-30T03:25:15.857Z,99843.97
2018-04-30T03:27:42.003Z,99833.14
2018-04-30T03:30:08.144Z,99818.69
2018-04-30T03:32:34.343Z,99813.88
2018-04-30T03:35:00.483Z,99796.84
2018-04-30T03:37:26.633Z,99795.09
2018-04-30T03:39:52.818Z,99774.18
2018-04-30T03:42:19.053Z,99760.73
2018-04-30T03:44:45.645Z,99752.48
2018-04-30T03:47:11.778Z,99766.03
2018-04-30T03:49:37.978Z,99766.47
2018-04-30T03:52:04.159Z,99748.55
2018-04-30T03:54:30.581Z,99738.90
2018-04-30T03:56:56.864Z,99731.95
2018-04-30T03:59:23.009Z,99734.15
2018-04-30T04:02:02.324Z,99737.24
2018-04-30T04:04:40.682Z,99732.88
2018-04-30T04:07:06.849Z,99710.60
2018-04-30T04:09:32.994Z,99697.11
2018-04-30T04:11:59.175Z,99706.74
2018-04-30T04:14:25.693Z,99718.08
2018-04-30T04:16:51.839Z,99704.11
2018-04-30T04:19:17.977Z,99700.56
2018-04-30T04:21:44.479Z,99688.71
2018-04-30T04:24:10.672Z,99687.36
2018-04-30T04:26:36.870Z,99689.09
2018-04-30T04:29:03.010Z,99686.38
2018-04-30T04:31:29.165Z,99674.58
2018-04-30T04:33:55.353Z,99663.70
2018-04-30T04:36:21.507Z,99660.11
2018-04-30T04:38:48.111Z,99667.08
2018-04-30T04:41:14.311Z,99656.50
2018-04-30T04:43:40.737Z,99671.79
2018-04-30T04:46:06.945Z,99676.64
2018-04-30T04:48:33.401Z,99689.77
2018-04-30T04:50:59.538Z,99690.23
2018-04-30T04:53:25.751Z,99681.95
2018-04-30T04:55:52.391Z,99674.02
2018-04-30T04:58:18.542Z,99661.35
2018-04-30T05:00:44.949Z,99646.44
2018-04-30T05:03:11.386Z,99634.11
2018-04-30T05:05:37.532Z,99632.69
2018-04-30T05:08:03.748Z,99636.95
2018-04-30T05:10:30.171Z,99651.37
2018-04-30T05:12:56.361Z,99685.93
2018-04-30T05:15:22.525Z,99754.91
2018-04-30T05:17:48.994Z,99811.28
2018-04-30T05:20:15.141Z,99832.25
2018-04-30T05:22:41.290Z,99795.55
2018-04-30T05:25:07.499Z,99769.81
2018-04-30T05:27:33.641Z,99750.59
2018-04-30T05:29:59.813Z,99760.64
2018-04-30T05:32:26.220Z,99792.05
2018-04-30T05:34:52.501Z,99792.20
2018-04-30T05:37:18.700Z,99797.93
2018-04-30T05:39:44.894Z,99793.58
2018-04-30T05:42:11.194Z,99771.78
2018-04-30T05:44:37.378Z,99768.77
2018-04-30T05:47:03.561Z,99780.61
2018-04-30T05:49:29.847Z,99785.48
2018-04-30T05:51:55.985Z,99771.06
2018-04-30T05:54:22.128Z,99761.89
2018-04-30T05:56:48.280Z,99745.18
2018-04-30T05:59:14.458Z,99735.09
2018-04-30T06:01:40.610Z,99725.47
2018-04-30T06:04:07.122Z,99725.36
2018-04-30T06:06:33.269Z,99712.59
2018-04-30T06:08:59.404Z,99694.61
2018-04-30T06:11:25.690Z,99685.72
2018-04-30T06:13:51.842Z,99682.72
2018-04-30T06:16:17.980Z,99692.00
2018-04-30T06:18:44.253Z,99693.14
2018-04-30T06:21:10.388Z,99684.67
2018-04-30T06:23:36.549Z,99677.01
2018-04-30T06:26:02.764Z,99669.41
2018-04-30T06:28:28.926Z,99681.32
2018-04-30T06:30:55.110Z,99682.27
2018-04-30T06:33:21.276Z,99687.80
2018-04-30T06:35:48.194Z,99692.34
2018-04-30T06:38:14.325Z,99685.62
2018-04-30T06:40:40.486Z,99686.30
2018-04-30T06:43:06.658Z,99683.50
2018-04-30T06:45:32.932Z,99672.31
2018-04-30T06:47:59.078Z,99656.31
2018-04-30T06:50:25.217Z,99656.38
2018-04-30T06:52:51.439Z,99645.95
2018-04-30T06:55:17.588Z,99665.55
2018-04-30T06:57:43.749Z,99651.83
2018-04-30T07:00:10.228Z,99648.94
2018-04-30T07:02:36.374Z,99646.58
2018-04-30T07:05:02.746Z,99651.80
2018-04-30T07:07:29.127Z,99651.31
2018-04-30T07:09:55.272Z,99653.45
2018-04-30T07:12:21.558Z,99647.31
2018-04-30T07:14:47.709Z,99644.58
2018-04-30T07:17:13.852Z,99638.73
2018-04-30T07:19:40.365Z,99638.55
2018-04-30T07:22:06.639Z,99631.39
2018-04-30T07:24:32.793Z,99639.52
2018-04-30T07:26:58.961Z,99648.52
2018-04-30T07:29:25.233Z,99646.14
2018-04-30T07:31:51.386Z,99642.78
2018-04-30T07:34:17.530Z,99640.34
2018-04-30T07:36:43.805Z,99647.66
2018-04-30T07:39:10.007Z,99651.92
2018-04-30T07:41:36.417Z,99660.17
2018-04-30T07:44:02.586Z,99647.06
2018-04-30T07:46:28.733Z,99647.44
2018-04-30T07:48:54.919Z,99645.63
2018-04-30T07:51:21.065Z,99651.01
2018-04-30T07:53:47.560Z,99653.31
2018-04-30T07:56:13.723Z,99659.36
2018-04-30T07:58:39.878Z,99653.12
2018-04-30T08:01:06.165Z,99651.20
2018-04-30T08:03:32.308Z,99656.75
2018-04-30T08:05:58.456Z,99651.77
2018-04-30T08:08:24.644Z,99659.02
2018-04-30T08:10:50.812Z,99668.14
2018-04-30T08:13:17.019Z,99662.91
2018-04-30T08:15:43.164Z,99657.21
2018-04-30T08:18:09.307Z,99664.54
2018-04-30T08:20:35.495Z,99662.27
2018-04-30T08:23:01.890Z,99659.05
2018-04-30T08:25:28.189Z,99661.59
2018-04-30T08:27:54.439Z,99666.23
2018-04-30T08:30:20.591Z,99657.36
2018-04-30T08:32:46.776Z,99662.66
2018-04-30T08:35:12.924Z,99669.55
2018-04-30T08:37:39.076Z,99676.23
2018-04-30T08:40:05.257Z,99673.80
2018-04-30T08:42:31.405Z,99665.66
2018-04-30T08:44:57.705Z,99661.53
2018-04-30T08:47:23.809Z,99669.27
2018-04-30T08:49:49.952Z,99670.70
2018-04-30T08:52:16.229Z,99673.89
2018-04-30T08:54:42.375Z,99678.33
2018-04-30T08:57:08.530Z,99676.68
2018-04-30T08:59:34.821Z,99685.06
2018-04-30T09:02:00.965Z,99689.99
2018-04-30T09:04:27.117Z,99691.03
2018-04-30T09:06:53.301Z,99679.62
2018-04-30T09:09:19.713Z,99689.72
2018-04-30T09:11:46.317Z,99689.23
2018-04-30T09:14:12.466Z,99686.61
2018-04-30T09:16:38.634Z,99685.72
2018-04-30T09:19:04.815Z,99679.54
2018-04-30T09:21:31.262Z,99685.56
2018-04-30T09:23:57.454Z,99684.25
2018-04-30T09:26:23.655Z,99675.06
2018-04-30T09:28:49.814Z,99673.63
2018-04-30T09:31:15.964Z,99669.62
2018-04-30T09:33:42.141Z,99674.82
2018-04-30T09:36:08.629Z,99680.44
2018-04-30T09:38:34.818Z,99673.70
2018-04-30T09:41:01.001Z,99671.70
2018-04-30T09:43:27.235Z,99665.28
2018-04-30T09:45:53.469Z,99669.55
2018-04-30T09:48:19.620Z,99673.98
2018-04-30T09:50:45.776Z,99678.29
2018-04-30T09:53:12.469Z,99684.36
2018-04-30T09:55:38.632Z,99680.97
2018-04-30T09:58:04.797Z,99683.23
2018-04-30T10:00:31.321Z,99679.89
2018-04-30T10:02:57.623Z,99678.22
2018-04-30T10:05:23.777Z,99686.27
2018-04-30T10:07:49.939Z,99684.81
2018-04-30T10:10:16.126Z,99692.48
2018-04-30T10:12:42.300Z,99700.55
2018-04-30T10:15:08.898Z,99709.91
2018-04-30T10:17:35.090Z,99708.70
2018-04-30T10:20:01.229Z,99715.83
2018-04-30T10:22:27.409Z,99710.58
2018-04-30T10:24:53.565Z,99708.06
2018-04-30T10:27:19.873Z,99711.13
2018-04-30T10:29:46.044Z,99721.20
2018-04-30T10:32:12.204Z,99720.80
2018-04-30T10:34:38.727Z,99726.11
2018-04-30T10:37:04.881Z,99730.05
2018-04-30T10:39:38.000Z,99731.73
2018-04-30T10:42:04.145Z,99730.63
2018-04-30T10:44:30.292Z,99738.22
2018-04-30T10:46:56.826Z,99757.41
2018-04-30T10:49:22.972Z,99764.04
2018-04-30T10:51:49.166Z,99769.39
2018-04-30T10:54:15.372Z,99773.05
2018-04-30T10:56:41.511Z,99777.98
2018-04-30T10:59:07.711Z,99778.92
2018-04-30T11:01:34.196Z,99786.19
2018-04-30T11:04:00.340Z,99798.44
2018-04-30T11:06:26.859Z,99803.80
2018-04-30T11:08:53.284Z,99804.29
2018-04-30T11:11:26.517Z,99817.47
2018-04-30T11:13:52.669Z,99826.97
2018-04-30T11:16:18.957Z,99818.99
2018-04-30T11:18:45.368Z,99825.50
2018-04-30T11:21:11.523Z,99821.13
2018-04-30T11:23:37.699Z,99827.73
2018-04-30T11:26:03.876Z,99824.67
2018-04-30T11:28:30.394Z,99821.01
2018-04-30T11:30:56.563Z,99827.14
2018-04-30T11:33:22.709Z,99852.29
2018-04-30T11:35:49.221Z,99853.66
2018-04-30T11:38:15.393Z,99857.27
2018-04-30T11:40:41.553Z,99863.45
2018-04-30T11:43:07.763Z,99860.01
2018-04-30T11:45:34.086Z,99870.98
2018-04-30T11:48:00.241Z,99871.48
2018-04-30T11:50:26.408Z,99860.16
2018-04-30T11:52:52.593Z,99868.25
2018-04-30T11:55:18.757Z,99874.53
2018-04-30T11:57:44.989Z,99872.30
2018-04-30T12:00:11.694Z,99875.64
2018-04-30T12:02:37.853Z,99875.14
2018-04-30T12:05:04.101Z,99876.79
2018-04-30T12:07:30.590Z,99879.30
2018-04-30T12:09:56.752Z,99875.65
2018-04-30T12:12:22.920Z,99887.95
2018-04-30T12:14:49.229Z,99887.73
2018-04-30T12:17:15.665Z,99895.97
2018-04-30T12:19:41.911Z,99898.55
2018-04-30T12:22:08.100Z,99911.77
2018-04-30T12:24:34.553Z,99905.37
2018-04-30T12:27:00.826Z,99905.37
2018-04-30T12:29:27.470Z,99916.30
2018-04-30T12:31:53.659Z,99921.61
2018-04-30T12:34:19.831Z,99921.61
2018-04-30T12:36:46.051Z,99925.98
2018-04-30T12:39:12.228Z,99910.63
2018-04-30T12:41:38.409Z,99913.18
2018-04-30T12:44:04.710Z,99909.15
2018-04-30T12:46:30.866Z,99918.22
2018-04-30T12:48:57.034Z,99921.56
2018-04-30T12:51:23.254Z,99921.51
2018-04-30T12:53:49.427Z,99925.33
2018-04-30T12:56:15.596Z,99926.92
2018-04-30T12:58:41.793Z,99926.43
2018-04-30T13:01:07.958Z,99928.17
2018-04-30T13:03:34.514Z,99930.26
2018-04-30T13:06:00.672Z,99938.03
2018-04-30T13:08:26.825Z,99927.41
2018-04-30T13:10:53.405Z,99932.01
2018-04-30T13:13:19.577Z,99934.16
2018-04-30T13:15:46.062Z,99940.05
2018-04-30T13:18:12.378Z,99941.48
2018-04-30T13:20:38.541Z,99952.06
2018-04-30T13:23:04.689Z,99946.70
2018-04-30T13:25:30.865Z,99939.98
2018-04-30T13:27:57.245Z,99947.97
2018-04-30T13:30:23.752Z,99958.99
2018-04-30T13:32:49.892Z,99957.80
2018-04-30T13:35:16.292Z,99956.05
2018-04-30T13:37:42.467Z,99948.59
2018-04-30T13:40:08.624Z,99964.73
2018-04-30T13:42:35.080Z,99975.94
2018-04-30T13:45:01.230Z,99973.33
2018-04-30T13:47:27.444Z,99981.40
2018-04-30T13:49:53.595Z,99976.86
2018-04-30T13:52:19.779Z,99979.74
2018-04-30T13:54:46.068Z,99981.70
2018-04-30T13:57:12.213Z,99983.07
2018-04-30T13:59:38.354Z,99988.27
2018-04-30T14:02:04.642Z,99997.70
2018-04-30T14:04:30.796Z,99997.48
2018-04-30T14:06:56.939Z,99986.70
2018-04-30T14:09:23.420Z,99988.68
2018-04-30T14:11:49.578Z,99982.12
2018-04-30T14:14:15.748Z,99982.45
2018-04-30T14:16:41.912Z,99992.10
2018-04-30T14:19:08.092Z,99986.40
2018-04-30T14:21:34.312Z,99982.36
2018-04-30T14:24:00.453Z,99986.54
2018-04-30T14:26:26.625Z,99996.75
2018-04-30T14:28:52.801Z,99997.33
2018-04-30T14:31:18.996Z,99996.52
2018-04-30T14:33:45.465Z,99997.97
2018-04-30T14:36:11.627Z,99997.59
2018-04-30T14:38:38.159Z,100001.97
2018-04-30T14:41:04.313Z,100004.10
2018-04-30T14:43:30.460Z,100012.65
2018-04-30T14:45:56.641Z,100007.00
2018-04-30T14:48:22.798Z,100002.92
2018-04-30T14:50:49.267Z,99998.09
2018-04-30T14:53:15.407Z,99992.86
2018-04-30T14:55:41.602Z,99981.03
2018-04-30T14:58:08.064Z,99991.20
2018-04-30T15:00:34.205Z,99983.77
2018-04-30T15:03:00.393Z,99979.70
2018-04-30T15:05:26.534Z,99976.99
2018-04-30T15:07:52.683Z,99974.08
2018-04-30T15:10:18.864Z,99969.17
2018-04-30T15:12:44.994Z,99970.86
2018-04-30T15:15:11.128Z,99971.44
2018-04-30T15:17:37.325Z,99964.89
2018-04-30T15:20:03.498Z,99961.81
2018-04-30T15:22:29.639Z,99959.27
2018-04-30T15:24:55.846Z,99958.33
2018-04-30T15:27:22.278Z,99959.00
2018-04-30T15:29:48.421Z,99963.48
2018-04-30T15:32:15.046Z,99956.27
2018-04-30T15:34:41.212Z,99960.50
2018-04-30T15:37:07.346Z,99961.23
2018-04-30T15:39:33.510Z,99971.98
2018-04-30T15:41:59.743Z,99969.04
2018-04-30T15:44:25.921Z,99958.39
2018-04-30T15:46:52.098Z,99955.63
2018-04-30T15:49:18.301Z,99963.67
2018-04-30T15:51:44.534Z,99960.52
2018-04-30T15:54:10.703Z,99961.50
2018-04-30T15:56:36.978Z,99963.84
2018-04-30T15:59:03.449Z,99965.75
2018-04-30T16:01:29.693Z,99963.16
2018-04-30T16:03:55.833Z,99964.19
2018-04-30T16:06:21.979Z,99962.52
2018-04-30T16:08:48.465Z,99972.52
2018-04-30T16:11:14.742Z,99965.70
2018-04-30T16:13:40.921Z,99959.52
2018-04-30T16:16:07.066Z,99961.88
2018-04-30T16:18:33.272Z,99960.63
2018-04-30T16:20:59.430Z,99958.30
2018-04-30T16:23:25.598Z,99947.25
2018-04-30T16:25:51.775Z,99950.88
2018-04-30T16:28:17.911Z,99958.07
2018-04-30T16:30:44.081Z,99958.05
2018-04-30T16:33:10.541Z,99963.09
2018-04-30T16:35:36.723Z,99958.95
2018-04-30T16:38:02.861Z,99959.36
2018-04-30T16:40:29.022Z,99955.03
2018-04-30T16:42:55.168Z,99953.11
2018-04-30T16:45:21.346Z,99948.27
2018-04-30T16:47:47.476Z,99959.20
2018-04-30T16:50:14.085Z,99963.77
2018-04-30T16:52:40.254Z,99965.22
2018-04-30T16:55:06.552Z,99966.73
2018-04-30T16:57:32.730Z,99965.41
2018-04-30T16:59:59.025Z,99979.41
2018-04-30T17:02:25.185Z,99975.44
2018-04-30T17:04:51.336Z,99969.39
2018-04-30T17:07:17.515Z,99974.92
2018-04-30T17:09:43.657Z,99979.83
2018-04-30T17:12:09.842Z,99975.95
2018-04-30T17:14:36.062Z,99977.13
2018-04-30T17:17:02.209Z,99977.75
2018-04-30T17:19:28.353Z,99986.28
2018-04-30T17:21:54.530Z,99981.45
2018-04-30T17:24:20.937Z,99987.70
2018-04-30T17:26:47.104Z,99996.56
2018-04-30T17:29:13.268Z,99998.52
2018-04-30T17:31:39.590Z,99991.91
2018-04-30T17:34:05.949Z,99995.19
2018-04-30T17:36:32.208Z,100003.57
2018-04-30T17:38:58.314Z,100000.46
2018-04-30T17:41:24.828Z,100002.64
2018-04-30T17:43:51.316Z,100011.95
2018-04-30T17:46:17.521Z,100008.48
2018-04-30T17:48:43.660Z,100008.47
2018-04-30T17:51:09.830Z,100011.80
2018-04-30T17:53:36.532Z,100012.52
2018-04-30T17:56:02.704Z,100023.77
2018-04-30T17:58:28.861Z,100028.84
2018-04-30T18:00:55.032Z,100024.05
2018-04-30T18:03:21.177Z,100025.36
2018-04-30T18:05:47.384Z,100029.69
2018-04-30T18:08:13.557Z,100035.34
2018-04-30T18:10:39.706Z,100030.13
2018-04-30T18:13:05.896Z,100041.92
2018-04-30T18:15:32.272Z,100045.48
2018-04-30T18:17:58.480Z,100046.05
2018-04-30T18:20:24.625Z,100062.89
2018-04-30T18:22:50.777Z,100041.84
2018-04-30T18:25:16.954Z,100042.76
2018-04-30T18:27:43.089Z,100036.20
2018-04-30T18:30:09.259Z,100038.80
2018-04-30T18:32:35.487Z,100045.84
2018-04-30T18:35:01.642Z,100047.92
2018-04-30T18:37:27.792Z,100051.27
2018-04-30T18:39:53.983Z,100055.88
2018-04-30T18:42:20.134Z,100059.12
2018-04-30T18:44:46.362Z,100062.39
2018-04-30T18:47:12.530Z,100067.37
2018-04-30T18:49:38.684Z,100075.38
2018-04-30T18:52:04.889Z,100082.98
2018-04-30T18:54:31.065Z,100076.98
2018-04-30T18:56:57.213Z,100073.59
2018-04-30T18:59:23.389Z,100082.89
2018-04-30T19:01:49.553Z,100079.10
2018-04-30T19:04:16.209Z,100077.86
2018-04-30T19:06:42.369Z,100074.45
2018-04-30T19:09:08.524Z,100085.46
2018-04-30T19:11:34.718Z,100082.56
2018-04-30T19:14:01.194Z,100081.78
2018-04-30T19:16:27.349Z,100087.97
2018-04-30T19:18:53.507Z,100093.36
2018-04-30T19:21:19.750Z,100096.97
2018-04-30T19:23:45.903Z,100090.95
2018-04-30T19:26:12.066Z,100094.60
2018-04-30T19:28:38.257Z,100105.70
2018-04-30T19:31:04.447Z,100104.98
2018-04-30T19:33:30.629Z,100098.97
2018-04-30T19:35:56.828Z,100099.60
2018-04-30T19:38:22.987Z,100109.77
2018-04-30T19:40:49.137Z,100107.73
2018-04-30T19:43:15.321Z,100107.39
2018-04-30T19:45:41.473Z,100108.37
2018-04-30T19:48:07.645Z,100112.02
2018-04-30T19:50:34.101Z,100109.92
2018-04-30T19:53:00.322Z,100105.22
2018-04-30T19:55:26.596Z,100104.00
2018-04-30T19:57:53.098Z,100108.47
2018-04-30T20:00:19.268Z,100104.20
2018-04-30T20:02:45.449Z,100102.12
2018-04-30T20:05:11.646Z,100096.09
2018-04-30T20:07:37.823Z,100096.98
2018-04-30T20:10:03.994Z,100101.01
2018-04-30T20:12:30.150Z,100101.54
2018-04-30T20:14:56.328Z,100105.09
2018-04-30T20:17:22.509Z,100097.70
2018-04-30T20:19:48.657Z,100093.39
2018-04-30T20:22:14.834Z,100093.03
2018-04-30T20:24:40.976Z,100098.34
2018-04-30T20:27:07.421Z,100100.13
2018-04-30T20:29:33.574Z,100099.31
2018-04-30T20:31:59.761Z,100092.80
2018-04-30T20:34:25.931Z,100088.48
2018-04-30T20:36:52.126Z,100087.27
2018-04-30T20:39:18.301Z,100084.69
2018-04-30T20:41:44.506Z,100089.97
2018-04-30T20:44:10.920Z,100089.59
2018-04-30T20:46:37.095Z,100090.91
2018-04-30T20:49:03.277Z,100088.80
2018-04-30T20:51:29.425Z,100080.55
2018-04-30T20:53:55.606Z,100083.18
2018-04-30T20:56:21.763Z,100079.33
2018-04-30T20:58:48.592Z,100079.34
2018-04-30T21:01:14.748Z,100078.52
2018-04-30T21:03:40.897Z,100076.33
2018-04-30T21:06:07.113Z,100072.44
2018-04-30T21:08:45.489Z,100076.46
2018-04-30T21:11:11.661Z,100066.90
2018-04-30T21:13:37.841Z,100066.47
2018-04-30T21:16:04.060Z,100060.87
2018-04-30T21:18:30.212Z,100062.62
2018-04-30T21:20:56.381Z,100055.67
2018-04-30T21:23:22.532Z,100051.80
2018-04-30T21:25:48.702Z,100044.94
2018-04-30T21:28:14.874Z,100053.64
2018-04-30T21:30:41.040Z,100048.84
2018-04-30T21:33:07.274Z,100046.69
2018-04-30T21:35:33.688Z,100046.25
2018-04-30T21:37:59.834Z,100048.92
2018-04-30T21:40:26.010Z,100039.36
2018-04-30T21:42:52.479Z,100038.54
2018-04-30T21:45:18.654Z,100032.06
2018-04-30T21:47:44.809Z,100030.77
2018-04-30T21:50:11.080Z,100035.17
2018-04-30T21:52:37.217Z,100035.66
2018-04-30T21:55:03.617Z,100034.78
2018-04-30T21:57:29.833Z,100033.03
2018-04-30T21:59:55.976Z,100035.66
2018-04-30T22:02:22.409Z,100039.20
2018-04-30T22:04:48.842Z,100033.09
2018-04-30T22:07:14.986Z,100030.56
2018-04-30T22:09:41.130Z,100031.44
2018-04-30T22:12:07.342Z,100033.71
2018-04-30T22:14:33.749Z,100045.13
2018-04-30T22:17:00.189Z,100037.30
2018-04-30T22:19:26.617Z,100035.55
2018-04-30T22:21:52.769Z,100026.38
2018-04-30T22:24:18.952Z,100027.26
2018-04-30T22:26:45.089Z,100021.23
2018-04-30T22:29:11.653Z,100022.16
2018-04-30T22:31:38.066Z,100026.66
2018-04-30T22:34:04.238Z,100024.91
2018-04-30T22:36:30.724Z,100016.66
2018-04-30T22:38:57.162Z,100022.77
2018-04-30T22:41:23.594Z,100017.14
2018-04-30T22:43:49.757Z,100023.69
2018-04-30T22:46:15.929Z,100015.83
2018-04-30T22:48:42.382Z,100014.05
2018-04-30T22:51:08.530Z,100017.53
2018-04-30T22:53:34.738Z,100013.16
2018-04-30T22:56:00.884Z,100013.64
2018-04-30T22:58:27.288Z,100008.02
2018-04-30T23:00:53.484Z,100004.57
2018-04-30T23:03:19.634Z,100000.64
2018-04-30T23:05:45.768Z,99997.58
2018-04-30T23:08:12.308Z,99993.69
2018-04-30T23:10:38.456Z,99992.38
2018-04-30T23:13:04.598Z,99987.15
2018-04-30T23:15:30.769Z,99983.27
2018-04-30T23:17:56.907Z,99980.25
2018-04-30T23:20:23.407Z,99980.20
2018-04-30T23:22:49.552Z,99978.98
2018-04-30T23:25:15.693Z,99981.61
2018-04-30T23:27:41.996Z,99986.02
2018-04-30T23:30:08.140Z,99978.99
2018-04-30T23:32:34.285Z,99975.16
2018-04-30T23:35:00.466Z,99964.23
2018-04-30T23:37:26.593Z,99956.37
2018-04-30T23:39:53.217Z,99953.76
2018-04-30T23:42:19.610Z,99955.95
2018-04-30T23:44:45.997Z,99931.11
2018-04-30T23:47:12.176Z,99942.47
2018-04-30T23:49:38.330Z,99946.88
2018-04-30T23:52:04.501Z,99949.92
2018-04-30T23:54:30.648Z,99938.09
2018-04-30T23:56:56.812Z,99940.27
2018-04-30T23:59:22.984Z,99936.35
